Time;durP1;ratioP1;P1;durP2;ratioP2;P2;SDS_P1;SDS_P2;PMS_P1;PMS_P2;Temp;Humidity;BMP_temperature;BMP_pressure;BME280_temperature;BME280_humidity;BME280_pressure;Samples;Min_cycle;Max_cycle;Signal;HPM_P1;HPM_P2
2022/06/25 00:01:13;;;;;;;2.97;0.57;;;23.20;53.40;;;;;;5041489;28;20041;-75
2022/06/25 00:03:41;;;;;;;1.85;0.47;;;23.10;53.60;;;;;;5040722;28;20041;-75
2022/06/25 00:06:09;;;;;;;1.23;0.50;;;23.20;54.00;;;;;;5038823;28;23793;-74
2022/06/25 00:08:37;;;;;;;1.13;0.50;;;23.10;55.10;;;;;;5016374;28;20492;-76
2022/06/25 00:11:05;;;;;;;3.53;0.70;;;23.10;55.70;;;;;;5036379;28;20448;-74
2022/06/25 00:13:33;;;;;;;5.65;0.60;;;23.10;56.30;;;;;;5041980;28;20045;-74
2022/06/25 00:16:01;;;;;;;3.67;0.47;;;23.10;56.10;;;;;;5036267;28;20052;-74
2022/06/25 00:18:28;;;;;;;2.30;0.52;;;23.10;56.90;;;;;;5036722;28;20040;-74
2022/06/25 00:20:55;;;;;;;1.80;0.45;;;23.10;57.60;;;;;;5040248;28;20396;-74
2022/06/25 00:23:22;;;;;;;1.23;0.30;;;23.10;56.80;;;;;;5038448;28;20485;-74
2022/06/25 00:25:50;;;;;;;4.35;0.85;;;23.00;56.60;;;;;;5033458;28;20037;-74
2022/06/25 00:28:17;;;;;;;2.58;0.70;;;22.90;56.80;;;;;;5024801;28;20843;-74
2022/06/25 00:30:44;;;;;;;2.88;0.68;;;22.90;57.10;;;;;;5035919;28;20041;-74
2022/06/25 00:33:11;;;;;;;3.67;0.70;;;22.90;57.10;;;;;;5037478;28;20053;-74
2022/06/25 00:35:38;;;;;;;0.82;0.40;;;22.90;57.10;;;;;;5035508;28;20049;-74
2022/06/25 00:38:05;;;;;;;5.28;0.73;;;22.90;56.40;;;;;;5036132;28;20049;-74
2022/06/25 00:40:32;;;;;;;3.67;0.77;;;22.90;56.10;;;;;;5040369;28;20040;-74
2022/06/25 00:42:59;;;;;;;1.40;0.77;;;22.80;56.40;;;;;;5034845;28;20136;-74
2022/06/25 00:45:26;;;;;;;6.32;1.13;;;22.80;56.70;;;;;;5039134;28;20029;-74
2022/06/25 00:47:53;;;;;;;1.45;0.68;;;22.80;56.70;;;;;;5037072;28;20045;-75
2022/06/25 00:50:20;;;;;;;1.80;0.60;;;22.70;56.50;;;;;;5035748;28;20402;-75
2022/06/25 00:52:52;;;;;;;1.88;0.65;;;22.70;56.30;;;;;;5021247;28;20053;-74
2022/06/25 00:55:23;;;;;;;1.60;0.80;;;22.70;56.90;;;;;;5037530;28;20148;-74
2022/06/25 00:57:52;;;;;;;2.13;0.40;;;22.70;56.50;;;;;;5037448;28;20040;-74
2022/06/25 01:00:19;;;;;;;1.02;0.50;;;22.70;56.60;;;;;;5019680;28;20412;-74
2022/06/25 01:02:47;;;;;;;5.05;0.60;;;22.70;56.50;;;;;;5035581;28;20168;-74
2022/06/25 01:05:15;;;;;;;3.95;0.90;;;22.70;56.60;;;;;;5035519;28;20041;-74
2022/06/25 01:07:48;;;;;;;2.45;0.77;;;22.70;56.40;;;;;;5030410;28;20504;-74
2022/06/25 01:10:16;;;;;;;5.63;0.60;;;22.70;57.40;;;;;;5015449;28;20099;-74
2022/06/25 01:12:44;;;;;;;1.73;0.65;;;22.60;57.60;;;;;;5030208;28;20632;-74
2022/06/25 01:15:17;;;;;;;2.13;0.50;;;22.60;57.90;;;;;;5031123;28;20053;-74
2022/06/25 01:17:52;;;;;;;3.38;0.65;;;22.70;57.90;;;;;;5033836;28;20045;-74
2022/06/25 01:20:26;;;;;;;4.13;0.77;;;22.60;57.90;;;;;;5032702;28;20396;-74
2022/06/25 01:22:53;;;;;;;2.92;1.05;;;22.60;58.70;;;;;;5032350;28;20048;-74
2022/06/25 01:25:21;;;;;;;2.25;0.50;;;22.60;58.30;;;;;;5017410;28;20045;-74
2022/06/25 01:27:48;;;;;;;3.58;0.55;;;22.60;57.50;;;;;;5030192;28;20120;-74
2022/06/25 01:30:15;;;;;;;5.28;0.70;;;22.60;57.60;;;;;;5032492;28;20065;-74
2022/06/25 01:32:43;;;;;;;3.03;0.68;;;22.60;57.60;;;;;;5035345;28;20133;-74
2022/06/25 01:35:10;;;;;;;2.13;0.70;;;22.60;57.30;;;;;;5033328;28;20514;-74
2022/06/25 01:37:37;;;;;;;1.30;0.68;;;22.60;57.10;;;;;;5023820;28;20054;-74
2022/06/25 01:40:05;;;;;;;1.35;0.55;;;22.60;56.60;;;;;;5035750;28;20500;-74
2022/06/25 01:45:18;;;;;;;1.77;0.73;;;22.60;56.40;;;;;;5035325;28;20513;-74
2022/06/25 01:47:45;;;;;;;1.98;0.60;;;22.50;56.30;;;;;;5029592;28;20531;-74
2022/06/25 01:50:13;;;;;;;1.75;0.52;;;22.50;57.20;;;;;;5017045;28;20089;-74
2022/06/25 01:52:43;;;;;;;1.33;0.55;;;22.60;57.10;;;;;;5014183;28;20411;-74
2022/06/25 01:55:10;;;;;;;2.53;0.40;;;22.60;56.90;;;;;;5034296;28;20055;-74
2022/06/25 01:57:39;;;;;;;3.35;0.70;;;22.60;58.50;;;;;;5029497;28;20148;-74
2022/06/25 02:00:11;;;;;;;3.05;0.60;;;22.60;58.60;;;;;;5017844;28;20052;-74
2022/06/25 02:02:45;;;;;;;1.90;0.70;;;22.50;60.40;;;;;;5020599;28;20041;-74
2022/06/25 02:05:15;;;;;;;5.78;0.90;;;22.40;67.00;;;;;;5034641;28;20041;-74
2022/06/25 02:07:42;;;;;;;6.65;0.70;;;22.20;67.00;;;;;;5034789;28;20555;-75
2022/06/25 02:10:12;;;;;;;4.05;0.93;;;22.00;68.90;;;;;;5031788;28;20116;-75
2022/06/25 02:12:39;;;;;;;5.43;0.98;;;21.90;70.80;;;;;;5031345;28;20053;-75
2022/06/25 02:15:07;;;;;;;2.13;0.90;;;21.80;71.30;;;;;;5012484;28;20042;-75
2022/06/25 02:17:36;;;;;;;3.08;0.77;;;21.80;71.80;;;;;;5027039;28;20038;-75
2022/06/25 02:20:03;;;;;;;1.52;0.68;;;21.80;71.70;;;;;;5028659;28;20053;-74
2022/06/25 02:22:30;;;;;;;5.35;0.90;;;21.80;73.30;;;;;;5023765;28;20037;-74
2022/06/25 02:24:57;;;;;;;2.97;0.90;;;21.80;74.50;;;;;;5032321;28;20057;-75
2022/06/25 02:27:24;;;;;;;2.92;0.70;;;21.70;75.20;;;;;;5024106;28;20037;-75
2022/06/25 02:29:52;;;;;;;3.45;1.05;;;21.70;74.40;;;;;;5019251;28;20056;-74
2022/06/25 02:32:19;;;;;;;2.03;0.85;;;21.50;74.60;;;;;;5031732;28;20072;-74
2022/06/25 02:34:46;;;;;;;3.47;0.82;;;21.50;73.90;;;;;;5017520;28;20119;-74
2022/06/25 02:37:14;;;;;;;3.15;0.93;;;21.60;73.90;;;;;;5020328;28;20052;-74
2022/06/25 02:39:42;;;;;;;2.65;0.90;;;21.50;74.90;;;;;;5015761;28;20037;-74
2022/06/25 02:42:10;;;;;;;4.47;1.27;;;21.50;75.30;;;;;;5032352;28;20593;-74
2022/06/25 02:44:37;;;;;;;1.30;0.80;;;21.50;74.80;;;;;;5027960;28;20045;-74
2022/06/25 02:47:04;;;;;;;2.97;1.17;;;21.40;74.70;;;;;;5027179;28;20049;-74
2022/06/25 02:50:01;;;;;;;3.80;1.30;;;21.50;75.00;;;;;;5030152;28;20045;-74
2022/06/25 02:52:28;;;;;;;4.68;1.10;;;21.50;75.60;;;;;;5027027;28;20500;-74
2022/06/25 02:54:56;;;;;;;4.63;1.17;;;21.40;75.80;;;;;;5017375;28;20074;-74
2022/06/25 03:00:15;;;;;;;4.32;1.30;;;21.40;77.40;;;;;;5026726;28;20155;-74
2022/06/25 03:02:42;;;;;;;3.70;1.08;;;21.40;77.60;;;;;;5033729;28;20056;-74
2022/06/25 03:05:10;;;;;;;3.08;1.30;;;21.40;76.70;;;;;;5018502;28;20053;-74
2022/06/25 03:07:39;;;;;;;3.58;1.17;;;21.40;76.90;;;;;;5028253;28;20045;-74
2022/06/25 03:10:08;;;;;;;1.92;1.17;;;21.30;77.40;;;;;;5033973;28;20053;-74
2022/06/25 03:12:35;;;;;;;1.83;1.10;;;21.30;76.60;;;;;;5012237;28;20137;-74
2022/06/25 03:15:16;;;;;;;3.58;0.80;;;21.30;76.50;;;;;;5017017;28;20052;-73
2022/06/25 03:17:44;;;;;;;3.00;1.20;;;21.30;76.40;;;;;;5030990;28;20059;-74
2022/06/25 03:20:30;;;;;;;1.63;0.88;;;21.30;76.90;;;;;;5026666;28;20125;-74
2022/06/25 03:23:00;;;;;;;4.13;1.10;;;21.30;76.40;;;;;;5027950;28;20049;-74
2022/06/25 03:25:28;;;;;;;1.10;1.00;;;21.30;75.40;;;;;;5032693;28;20554;-74
2022/06/25 03:27:59;;;;;;;2.55;1.13;;;21.40;75.50;;;;;;5020191;28;20496;-74
2022/06/25 03:30:26;;;;;;;3.72;0.98;;;21.40;74.90;;;;;;5027118;28;20076;-74
2022/06/25 03:32:53;;;;;;;2.28;0.90;;;21.40;74.50;;;;;;5010280;28;20055;-74
2022/06/25 03:35:23;;;;;;;5.57;1.52;;;21.50;74.10;;;;;;5029124;28;20411;-74
2022/06/25 03:38:04;;;;;;;1.50;1.10;;;21.40;73.20;;;;;;5035282;28;20120;-74
2022/06/25 03:40:31;;;;;;;4.13;1.27;;;21.40;73.70;;;;;;5029897;28;20540;-74
2022/06/25 03:42:59;;;;;;;3.17;0.95;;;21.30;73.00;;;;;;5043295;28;20158;-74
2022/06/25 03:45:30;;;;;;;4.72;0.93;;;21.40;73.30;;;;;;5017825;28;20545;-75
2022/06/25 03:47:58;;;;;;;2.03;1.02;;;21.40;72.40;;;;;;5033340;28;20048;-75
2022/06/25 03:50:25;;;;;;;1.92;0.98;;;21.40;72.70;;;;;;5029026;28;20204;-75
2022/06/25 03:52:52;;;;;;;3.67;1.00;;;21.40;72.40;;;;;;5023983;28;20169;-74
2022/06/25 03:55:20;;;;;;;3.92;1.13;;;21.30;71.60;;;;;;5032385;28;20064;-75
2022/06/25 03:57:57;;;;;;;2.05;0.93;;;21.30;71.80;;;;;;5032863;28;20128;-74
2022/06/25 04:00:28;;;;;;;1.70;1.10;;;21.20;72.20;;;;;;5032251;28;20095;-74
2022/06/25 04:02:59;;;;;;;2.03;0.85;;;21.20;72.50;;;;;;5013801;28;20131;-74
2022/06/25 04:05:30;;;;;;;2.42;0.90;;;21.20;72.80;;;;;;5030975;28;20095;-74
2022/06/25 04:08:20;;;;;;;4.40;1.05;;;21.20;72.20;;;;;;5026598;28;20045;-75
2022/06/25 04:10:50;;;;;;;1.17;0.70;;;21.10;71.60;;;;;;5005910;28;20953;-74
2022/06/25 04:13:17;;;;;;;3.55;1.45;;;21.20;71.60;;;;;;5009346;28;20198;-74
2022/06/25 04:15:44;;;;;;;4.82;1.35;;;21.20;71.40;;;;;;5013582;28;20041;-75
2022/06/25 04:18:13;;;;;;;1.67;0.90;;;21.20;71.50;;;;;;5032947;28;20049;-75
2022/06/25 04:20:41;;;;;;;3.78;1.15;;;21.10;70.90;;;;;;5019095;28;20053;-74
2022/06/25 04:23:08;;;;;;;3.00;1.10;;;21.10;71.30;;;;;;5028380;28;20057;-75
2022/06/25 04:25:36;;;;;;;4.28;1.23;;;21.20;71.40;;;;;;5029921;28;20052;-74
2022/06/25 04:30:52;;;;;;;3.08;1.00;;;21.30;70.30;;;;;;5034356;28;20109;-75
2022/06/25 04:33:20;;;;;;;1.63;1.00;;;21.30;69.50;;;;;;5046990;28;20049;-74
2022/06/25 04:35:55;;;;;;;2.20;0.90;;;21.40;69.50;;;;;;5041448;28;20183;-75
2022/06/25 04:38:49;;;;;;;4.72;1.40;;;21.50;69.40;;;;;;5032788;28;20060;-75
2022/06/25 04:41:17;;;;;;;3.13;1.05;;;21.70;68.80;;;;;;5034349;28;20052;-74
2022/06/25 04:43:48;;;;;;;5.10;1.38;;;21.80;68.50;;;;;;5018883;28;20052;-74
2022/06/25 04:46:21;;;;;;;3.70;0.77;;;21.60;67.30;;;;;;5030978;28;20049;-74
2022/06/25 04:48:48;;;;;;;3.38;0.75;;;21.90;68.30;;;;;;5034317;28;20138;-74
2022/06/25 04:51:23;;;;;;;1.75;0.70;;;22.00;67.30;;;;;;5035535;28;20124;-74
2022/06/25 04:53:56;;;;;;;6.25;1.00;;;22.10;66.70;;;;;;5037907;28;20053;-74
2022/06/25 04:56:36;;;;;;;3.13;1.00;;;22.20;67.10;;;;;;5034001;28;20136;-74
2022/06/25 04:59:04;;;;;;;1.58;0.90;;;22.20;68.30;;;;;;5033208;28;20045;-74
2022/06/25 05:01:51;;;;;;;3.30;1.15;;;22.30;66.90;;;;;;4999685;28;20065;-74
2022/06/25 05:04:27;;;;;;;2.53;1.02;;;22.50;65.60;;;;;;4986395;28;20049;-74
2022/06/25 05:06:54;;;;;;;2.97;1.25;;;22.60;64.50;;;;;;4968124;28;20099;-75
2022/06/25 05:09:22;;;;;;;4.32;1.23;;;22.70;65.30;;;;;;4987230;28;20800;-74
2022/06/25 05:11:49;;;;;;;5.32;0.88;;;22.90;65.50;;;;;;4985929;28;20708;-74
2022/06/25 05:14:16;;;;;;;3.97;0.98;;;23.00;64.90;;;;;;4986371;28;20049;-74
2022/06/25 05:16:46;;;;;;;1.58;0.93;;;23.20;63.90;;;;;;4985163;28;20119;-74
2022/06/25 05:19:13;;;;;;;1.60;0.80;;;23.20;64.20;;;;;;4969846;28;20057;-74
2022/06/25 05:21:40;;;;;;;6.75;1.00;;;23.20;62.40;;;;;;4973610;28;20053;-75
2022/06/25 05:24:09;;;;;;;4.13;0.90;;;23.30;62.10;;;;;;4984936;28;20100;-74
2022/06/25 05:26:36;;;;;;;5.32;1.08;;;23.50;63.00;;;;;;4972772;28;20041;-74
2022/06/25 05:29:04;;;;;;;2.33;0.90;;;23.60;62.70;;;;;;4984864;28;22090;-75
2022/06/25 05:31:31;;;;;;;2.83;0.80;;;23.80;62.20;;;;;;4971328;28;20745;-74
2022/06/25 05:33:58;;;;;;;4.45;0.82;;;23.80;61.20;;;;;;4967192;28;20722;-74
2022/06/25 05:36:26;;;;;;;2.13;0.98;;;24.10;61.80;;;;;;4972604;28;20174;-75
2022/06/25 05:38:53;;;;;;;1.38;0.77;;;24.20;60.50;;;;;;5003045;28;20053;-74
2022/06/25 05:41:20;;;;;;;4.22;0.90;;;24.30;60.30;;;;;;4983440;28;20630;-74
2022/06/25 05:43:48;;;;;;;1.92;0.80;;;24.40;60.70;;;;;;4986292;28;20077;-74
2022/06/25 05:46:15;;;;;;;4.07;0.93;;;24.50;60.00;;;;;;4993555;28;20607;-75
2022/06/25 05:48:44;;;;;;;4.05;1.05;;;24.50;59.40;;;;;;4983989;28;20133;-74
2022/06/25 05:51:14;;;;;;;1.50;0.90;;;24.60;59.90;;;;;;4998070;28;22161;-74
2022/06/25 05:53:44;;;;;;;2.67;0.85;;;24.80;59.40;;;;;;4988080;28;20617;-74
2022/06/25 05:56:11;;;;;;;2.15;0.88;;;24.80;59.10;;;;;;4985106;28;20134;-75
2022/06/25 05:58:38;;;;;;;2.40;1.05;;;24.90;59.90;;;;;;4985489;28;20049;-74
2022/06/25 06:01:05;;;;;;;1.75;0.90;;;25.10;58.50;;;;;;4985229;28;20054;-74
2022/06/25 06:03:32;;;;;;;2.78;1.13;;;25.20;59.20;;;;;;4978951;28;20053;-74
2022/06/25 06:06:00;;;;;;;2.22;0.90;;;25.30;58.40;;;;;;4985359;28;20037;-74
2022/06/25 06:08:27;;;;;;;3.05;1.15;;;25.50;58.80;;;;;;4983293;28;20087;-75
2022/06/25 06:10:54;;;;;;;2.15;1.10;;;25.50;57.50;;;;;;4979715;28;20096;-74
2022/06/25 06:13:21;;;;;;;3.00;1.17;;;25.60;58.00;;;;;;4987282;28;20061;-74
2022/06/25 06:15:48;;;;;;;1.50;0.98;;;25.80;57.90;;;;;;4985536;28;20480;-75
2022/06/25 06:18:15;;;;;;;3.80;1.55;;;25.80;56.50;;;;;;4988073;28;20104;-75
2022/06/25 06:20:42;;;;;;;5.32;2.08;;;25.80;56.30;;;;;;4984457;28;20049;-75
2022/06/25 06:23:09;;;;;;;3.42;1.33;;;25.90;57.60;;;;;;4992550;28;20053;-75
2022/06/25 06:25:36;;;;;;;3.40;1.20;;;26.00;56.30;;;;;;4978361;28;22111;-74
2022/06/25 06:28:03;;;;;;;2.78;1.60;;;25.90;56.50;;;;;;4984342;28;22031;-74
2022/06/25 06:30:31;;;;;;;4.57;1.77;;;25.80;56.70;;;;;;4986558;28;20045;-74
2022/06/25 06:33:03;;;;;;;3.47;1.40;;;25.90;58.40;;;;;;4984772;28;20076;-75
2022/06/25 06:35:31;;;;;;;4.88;1.63;;;26.20;57.00;;;;;;4985156;28;20075;-74
2022/06/25 06:37:58;;;;;;;5.05;1.58;;;26.30;56.70;;;;;;4985819;28;20106;-74
2022/06/25 06:40:26;;;;;;;3.42;1.48;;;26.30;56.80;;;;;;4983556;28;20045;-75
2022/06/25 06:42:53;;;;;;;3.85;1.65;;;26.30;56.40;;;;;;4985567;28;20061;-74
2022/06/25 06:45:20;;;;;;;3.05;1.92;;;26.40;56.20;;;;;;4984229;28;20056;-75
2022/06/25 06:47:48;;;;;;;2.65;1.65;;;26.30;55.70;;;;;;4982167;28;20800;-75
2022/06/25 06:50:15;;;;;;;2.55;1.75;;;26.50;57.10;;;;;;4986181;28;20084;-75
2022/06/25 06:52:42;;;;;;;5.97;1.55;;;26.50;56.70;;;;;;4985509;28;20045;-75
2022/06/25 06:55:09;;;;;;;3.17;1.40;;;26.80;55.90;;;;;;4985344;28;20041;-75
2022/06/25 06:57:36;;;;;;;3.42;1.73;;;26.90;55.70;;;;;;4983914;28;20056;-75
2022/06/25 07:00:11;;;;;;;5.38;2.00;;;26.90;54.80;;;;;;4982019;28;20048;-75
2022/06/25 07:02:38;;;;;;;3.00;1.50;;;27.00;55.70;;;;;;4979924;28;20741;-75
2022/06/25 07:05:06;;;;;;;4.55;1.67;;;27.10;55.50;;;;;;4982259;28;20146;-75
2022/06/25 07:07:33;;;;;;;5.32;1.42;;;27.00;54.80;;;;;;4984493;28;22168;-75
2022/06/25 07:10:01;;;;;;;5.15;1.85;;;27.10;56.70;;;;;;4985405;28;20864;-75
2022/06/25 07:12:28;;;;;;;4.80;1.55;;;27.20;55.50;;;;;;4985454;28;20057;-75
2022/06/25 07:14:55;;;;;;;4.50;1.70;;;27.20;55.40;;;;;;4977962;28;20056;-74
2022/06/25 07:17:22;;;;;;;3.05;1.50;;;27.30;55.40;;;;;;4979499;28;20693;-74
2022/06/25 07:19:49;;;;;;;5.63;1.58;;;27.30;55.90;;;;;;4979671;28;20061;-75
2022/06/25 07:22:16;;;;;;;4.43;1.50;;;27.40;55.10;;;;;;4970063;28;20040;-74
2022/06/25 07:24:43;;;;;;;7.07;1.50;;;27.40;55.00;;;;;;4963020;28;20323;-74
2022/06/25 07:27:11;;;;;;;2.38;1.85;;;27.40;54.70;;;;;;4977933;28;20049;-75
2022/06/25 07:29:38;;;;;;;4.15;1.70;;;27.60;53.90;;;;;;4979180;28;20107;-74
2022/06/25 07:32:05;;;;;;;3.40;1.50;;;27.50;54.50;;;;;;4984765;28;20503;-74
2022/06/25 07:34:32;;;;;;;2.10;1.52;;;27.40;53.50;;;;;;4981733;28;20064;-73
2022/06/25 07:37:00;;;;;;;4.03;1.60;;;27.50;54.30;;;;;;4999131;28;20599;-73
2022/06/25 07:39:27;;;;;;;2.38;1.30;;;27.60;54.90;;;;;;4970726;28;20053;-73
2022/06/25 07:41:54;;;;;;;2.10;1.67;;;27.50;53.20;;;;;;4984081;28;20045;-73
2022/06/25 07:44:21;;;;;;;5.28;1.65;;;27.70;53.60;;;;;;4987395;28;21970;-73
2022/06/25 07:46:48;;;;;;;5.25;1.48;;;27.70;54.20;;;;;;4984934;28;20041;-73
2022/06/25 07:49:15;;;;;;;3.05;1.58;;;27.90;55.10;;;;;;4985806;28;20041;-73
2022/06/25 07:51:59;;;;;;;3.55;1.85;;;28.10;55.00;;;;;;5000039;28;22641;-73
2022/06/25 07:54:31;;;;;;;3.22;1.80;;;28.20;53.60;;;;;;4982619;28;20228;-73
2022/06/25 07:56:58;;;;;;;;;;;28.20;53.80;;;;;;4979608;28;20524;-73
2022/06/25 07:59:25;;;;;;;5.13;2.00;;;28.10;53.60;;;;;;4982646;28;19932;-72
2022/06/25 08:01:52;;;;;;;2.90;1.75;;;28.20;54.40;;;;;;4992853;28;20103;-73
2022/06/25 08:04:19;;;;;;;3.42;2.15;;;28.20;53.50;;;;;;4978134;28;22518;-72
2022/06/25 08:06:47;;;;;;;4.80;2.10;;;28.10;53.30;;;;;;4977675;28;20649;-73
2022/06/25 08:09:14;;;;;;;4.32;1.73;;;28.20;53.70;;;;;;4989822;28;20791;-72
2022/06/25 08:11:41;;;;;;;5.60;2.35;;;28.30;54.00;;;;;;4983149;28;20066;-72
2022/06/25 08:14:08;;;;;;;5.40;2.17;;;28.20;53.00;;;;;;4989060;28;20107;-72
2022/06/25 08:16:37;;;;;;;4.43;2.20;;;28.40;53.90;;;;;;4985205;28;22019;-72
2022/06/25 08:19:05;;;;;;;5.15;1.98;;;28.60;53.90;;;;;;4987058;28;20045;-72
2022/06/25 08:21:32;;;;;;;5.05;2.28;;;28.40;54.60;;;;;;4987497;28;20045;-75
2022/06/25 08:23:59;;;;;;;2.95;1.75;;;28.50;53.60;;;;;;4988706;28;20094;-74
2022/06/25 08:26:26;;;;;;;4.90;2.13;;;28.50;53.40;;;;;;4983014;28;20041;-74
2022/06/25 08:28:54;;;;;;;4.32;2.00;;;28.40;53.00;;;;;;4987093;28;20889;-75
2022/06/25 08:31:21;;;;;;;4.55;2.88;;;28.60;54.40;;;;;;4988900;28;20042;-74
2022/06/25 08:33:48;;;;;;;3.85;3.00;;;28.50;56.20;;;;;;4983375;28;20112;-74
2022/06/25 08:36:16;;;;;;;5.07;2.63;;;28.50;57.90;;;;;;4988809;28;20045;-74
2022/06/25 08:38:43;;;;;;;4.75;3.03;;;28.50;58.70;;;;;;4986233;28;20570;-74
2022/06/25 08:41:10;;;;;;;3.42;2.30;;;28.50;59.30;;;;;;4982165;28;20571;-75
2022/06/25 08:43:38;;;;;;;2.63;2.25;;;28.40;56.10;;;;;;4984971;28;20055;-74
2022/06/25 08:46:05;;;;;;;6.40;2.80;;;28.60;56.40;;;;;;4984594;28;20041;-74
2022/06/25 08:48:34;;;;;;;8.25;2.88;;;28.70;56.80;;;;;;4983244;28;20541;-74
2022/06/25 08:51:02;;;;;;;6.45;2.95;;;28.50;57.00;;;;;;4981655;28;20553;-74
2022/06/25 08:53:34;;;;;;;4.63;2.42;;;28.30;56.90;;;;;;4963979;28;20049;-74
2022/06/25 08:56:02;;;;;;;6.85;3.35;;;28.60;57.70;;;;;;4986160;28;20051;-73
2022/06/25 08:58:30;;;;;;;10.90;3.38;;;28.60;57.10;;;;;;4982681;28;20088;-74
2022/06/25 09:00:57;;;;;;;6.47;2.88;;;28.50;57.40;;;;;;4983999;28;20231;-74
2022/06/25 09:03:25;;;;;;;7.72;4.10;;;28.80;58.10;;;;;;4983144;28;20046;-74
2022/06/25 09:05:52;;;;;;;6.45;3.30;;;28.90;58.20;;;;;;4979861;28;20151;-74
2022/06/25 09:08:19;;;;;;;6.22;3.38;;;28.80;58.70;;;;;;4972189;28;21937;-75
2022/06/25 09:10:53;;;;;;;7.50;3.88;;;28.90;60.40;;;;;;4986519;28;20208;-74
2022/06/25 09:13:24;;;;;;;5.80;3.15;;;28.70;61.40;;;;;;4969596;28;20092;-74
2022/06/25 09:15:52;;;;;;;5.28;3.22;;;28.80;63.00;;;;;;4982400;28;20076;-75
2022/06/25 09:18:19;;;;;;;3.97;3.05;;;28.60;62.20;;;;;;4985593;28;20071;-74
2022/06/25 09:21:00;;;;;;;8.07;3.40;;;28.40;63.50;;;;;;4984443;28;20095;-74
2022/06/25 09:23:29;;;;;;;3.78;3.33;;;28.10;63.60;;;;;;4985805;28;20033;-74
2022/06/25 09:26:10;;;;;;;4.80;3.10;;;28.10;63.90;;;;;;4978048;28;20135;-74
2022/06/25 09:28:39;;;;;;;7.55;3.13;;;28.30;65.40;;;;;;4983758;28;20112;-74
2022/06/25 09:31:07;;;;;;;4.75;3.42;;;28.80;65.00;;;;;;4985424;28;20052;-74
2022/06/25 09:33:37;;;;;;;6.57;3.50;;;29.00;63.40;;;;;;4966942;28;20061;-74
2022/06/25 09:36:07;;;;;;;7.22;2.90;;;29.00;62.70;;;;;;4969908;28;20087;-75
2022/06/25 09:38:34;;;;;;;5.75;3.05;;;28.60;61.90;;;;;;4983808;28;20049;-75
2022/06/25 09:41:01;;;;;;;5.78;3.60;;;28.50;63.00;;;;;;4980154;28;20068;-74
2022/06/25 09:43:35;;;;;;;7.63;3.30;;;28.90;64.70;;;;;;4975857;28;21189;-75
2022/06/25 09:46:05;;;;;;;6.18;3.42;;;29.10;63.70;;;;;;4967712;28;20214;-76
2022/06/25 09:48:34;;;;;;;6.78;3.53;;;29.10;63.40;;;;;;4971002;28;22028;-74
2022/06/25 09:51:11;;;;;;;3.47;2.97;;;28.70;62.40;;;;;;4982472;28;20447;-74
2022/06/25 09:53:55;;;;;;;5.60;2.95;;;29.00;64.80;;;;;;4985599;28;20049;-74
2022/06/25 09:56:25;;;;;;;4.15;3.03;;;29.10;63.70;;;;;;4994932;28;20461;-74
2022/06/25 09:58:53;;;;;;;11.82;3.95;;;29.00;63.60;;;;;;4982566;28;20045;-74
2022/06/25 10:01:32;;;;;;;9.38;3.63;;;29.00;63.80;;;;;;4983217;28;20084;-74
2022/06/25 10:04:03;;;;;;;6.47;2.95;;;29.10;64.20;;;;;;4979816;28;20207;-74
2022/06/25 10:06:35;;;;;;;8.00;3.10;;;29.30;63.50;;;;;;4982442;28;20045;-74
2022/06/25 10:09:06;;;;;;;;;;;29.30;62.80;;;;;;4982543;28;20049;-74
2022/06/25 10:11:34;;;;;;;6.82;2.65;;;29.40;65.00;;;;;;4978598;28;19929;-74
2022/06/25 10:14:02;;;;;;;4.30;3.03;;;29.50;62.30;;;;;;4969155;28;20186;-74
2022/06/25 10:16:30;;;;;;;7.00;2.50;;;29.50;62.50;;;;;;4984950;28;20041;-74
2022/06/25 10:18:57;;;;;;;7.05;2.90;;;29.50;63.00;;;;;;4984027;28;20045;-73
2022/06/25 10:21:25;;;;;;;6.38;2.88;;;29.60;63.30;;;;;;4984505;28;20042;-74
2022/06/25 10:23:57;;;;;;;7.88;3.10;;;29.40;62.30;;;;;;4985726;28;21718;-73
2022/06/25 10:26:25;;;;;;;4.28;2.85;;;29.20;62.80;;;;;;4979713;28;20046;-74
2022/06/25 10:28:52;;;;;;;5.47;3.00;;;29.40;63.40;;;;;;4979635;28;20106;-73
2022/06/25 10:31:20;;;;;;;7.40;2.95;;;29.60;62.80;;;;;;4986491;28;20048;-73
2022/06/25 10:34:02;;;;;;;4.05;2.45;;;29.70;62.90;;;;;;4983501;28;20209;-75
2022/06/25 10:36:43;;;;;;;5.50;2.63;;;29.40;61.20;;;;;;4984074;28;20056;-74
2022/06/25 10:39:22;;;;;;;4.82;2.90;;;29.30;61.80;;;;;;4972830;28;20662;-73
2022/06/25 10:45:04;;;;;;;3.22;2.20;;;29.40;62.50;;;;;;4984931;28;20215;-74
2022/06/25 10:47:50;;;;;;;11.25;2.65;;;29.30;62.70;;;;;;4972170;28;20136;-74
2022/06/25 10:50:23;;;;;;;3.63;2.00;;;29.30;63.00;;;;;;4985390;28;20072;-73
2022/06/25 10:55:40;;;;;;;6.90;2.83;;;29.20;63.60;;;;;;4979797;28;20059;-74
2022/06/25 10:58:13;;;;;;;7.25;2.20;;;29.50;64.10;;;;;;4979448;28;20053;-74
2022/06/25 11:00:53;;;;;;;4.97;2.13;;;29.60;63.80;;;;;;4983268;28;20053;-73
2022/06/25 11:03:30;;;;;;;5.70;1.80;;;29.30;63.00;;;;;;4980581;28;20054;-73
2022/06/25 11:06:17;;;;;;;9.02;2.30;;;29.30;63.00;;;;;;4980793;28;20815;-73
2022/06/25 11:08:45;;;;;;;4.07;2.38;;;29.50;62.20;;;;;;4984158;28;20729;-73
2022/06/25 11:11:12;;;;;;;3.70;2.10;;;29.70;62.10;;;;;;4968188;28;22792;-74
2022/06/25 11:13:40;;;;;;;3.92;1.80;;;29.60;62.50;;;;;;4985313;28;20041;-73
2022/06/25 11:16:14;;;;;;;3.58;2.10;;;29.50;62.80;;;;;;4969140;28;20057;-74
2022/06/25 11:18:53;;;;;;;4.22;2.00;;;29.40;61.80;;;;;;4990962;28;20176;-74
2022/06/25 11:21:35;;;;;;;4.68;2.28;;;29.10;61.60;;;;;;4987040;28;20112;-73
2022/06/25 11:24:07;;;;;;;3.03;2.00;;;29.20;62.50;;;;;;4985610;28;20588;-74
2022/06/25 11:29:22;;;;;;;4.07;1.63;;;29.40;62.00;;;;;;4982827;28;20057;-73
2022/06/25 11:31:51;;;;;;;4.82;1.77;;;29.50;61.10;;;;;;4972704;28;20238;-74
2022/06/25 11:34:20;;;;;;;3.75;1.45;;;29.60;60.90;;;;;;4971681;28;20424;-74
2022/06/25 11:36:59;;;;;;;4.68;2.13;;;29.60;61.40;;;;;;4982918;28;20044;-74
2022/06/25 11:39:26;;;;;;;2.92;1.40;;;29.60;60.30;;;;;;4986858;28;20046;-73
2022/06/25 11:41:54;;;;;;;4.45;2.05;;;29.40;60.30;;;;;;4986792;28;20766;-73
2022/06/25 11:44:21;;;;;;;3.70;1.50;;;29.20;61.00;;;;;;4974598;28;20467;-75
2022/06/25 11:46:49;;;;;;;4.32;1.65;;;29.10;62.00;;;;;;4975265;28;20044;-74
2022/06/25 11:49:20;;;;;;;4.38;1.40;;;29.00;61.50;;;;;;4986046;28;20695;-74
2022/06/25 11:51:51;;;;;;;2.45;1.30;;;29.00;61.40;;;;;;4984483;28;20059;-73
2022/06/25 11:54:24;;;;;;;5.00;1.60;;;29.10;61.30;;;;;;4962671;28;20167;-74
2022/06/25 11:56:54;;;;;;;3.25;1.90;;;29.30;61.60;;;;;;4982252;28;22400;-73
2022/06/25 11:59:38;;;;;;;5.20;1.60;;;29.40;60.80;;;;;;4984421;28;21449;-74
2022/06/25 12:02:06;;;;;;;5.95;2.20;;;29.20;60.50;;;;;;4990296;28;20053;-74
2022/06/25 12:04:52;;;;;;;3.92;1.83;;;29.20;60.80;;;;;;4989891;28;20055;-74
2022/06/25 12:07:24;;;;;;;5.03;1.90;;;29.20;60.10;;;;;;4992902;28;20148;-74
2022/06/25 12:09:54;;;;;;;3.17;1.40;;;29.30;60.10;;;;;;5001665;28;20450;-74
2022/06/25 12:12:23;;;;;;;4.22;1.20;;;29.30;59.70;;;;;;4993318;28;20168;-74
2022/06/25 12:14:51;;;;;;;3.88;1.10;;;29.30;60.70;;;;;;4982152;28;20070;-74
2022/06/25 12:17:18;;;;;;;5.43;1.10;;;29.30;60.40;;;;;;4996210;28;20512;-73
2022/06/25 12:19:54;;;;;;;3.35;1.13;;;29.30;59.40;;;;;;4995322;28;20049;-73
2022/06/25 12:22:27;;;;;;;3.53;0.98;;;29.20;60.00;;;;;;4990653;28;20505;-75
2022/06/25 12:25:02;;;;;;;2.95;1.00;;;29.10;60.30;;;;;;4995808;28;20049;-75
2022/06/25 12:27:29;;;;;;;4.22;1.40;;;29.20;59.60;;;;;;4993037;28;20049;-75
2022/06/25 12:29:59;;;;;;;3.30;0.80;;;29.30;59.50;;;;;;4996787;28;20052;-73
2022/06/25 12:32:43;;;;;;;2.95;0.77;;;29.20;59.30;;;;;;4992259;28;20561;-74
2022/06/25 12:35:22;;;;;;;2.00;0.70;;;29.30;59.40;;;;;;4991167;28;22397;-75
2022/06/25 12:38:09;;;;;;;3.22;0.95;;;29.30;59.10;;;;;;5000775;28;20052;-74
2022/06/25 12:40:38;;;;;;;2.55;0.70;;;29.30;59.90;;;;;;5003652;28;20706;-74
2022/06/25 12:43:07;;;;;;;1.75;0.82;;;29.30;59.30;;;;;;4983026;28;20100;-76
2022/06/25 12:45:36;;;;;;;30.65;3.28;;;29.20;59.00;;;;;;4983497;28;20125;-74
2022/06/25 12:48:05;;;;;;;2.35;0.60;;;29.00;58.90;;;;;;4997828;28;20041;-73
2022/06/25 12:50:34;;;;;;;3.97;0.70;;;29.20;59.00;;;;;;4996176;28;20045;-74
2022/06/25 12:53:08;;;;;;;6.03;0.85;;;29.30;59.70;;;;;;5002598;28;20057;-74
2022/06/25 12:55:36;;;;;;;2.22;0.68;;;29.50;58.60;;;;;;5006958;28;20053;-75
2022/06/25 12:58:09;;;;;;;2.30;0.80;;;29.20;58.40;;;;;;5006329;28;20056;-74
2022/06/25 13:00:37;;;;;;;2.95;0.70;;;29.10;58.80;;;;;;5008369;28;20115;-75
2022/06/25 13:03:12;;;;;;;5.50;1.05;;;29.20;58.90;;;;;;5003535;28;20112;-74
2022/06/25 13:05:39;;;;;;;3.92;0.90;;;29.30;59.00;;;;;;5002045;28;20050;-74
2022/06/25 13:08:06;;;;;;;3.17;0.70;;;29.40;58.50;;;;;;4999463;28;20111;-74
2022/06/25 13:10:33;;;;;;;1.08;0.50;;;29.40;58.40;;;;;;5000909;28;20041;-75
2022/06/25 13:13:03;;;;;;;1.65;0.50;;;29.40;58.70;;;;;;5008909;28;22516;-75
2022/06/25 13:15:31;;;;;;;2.22;0.60;;;29.40;58.00;;;;;;5003734;28;20059;-75
2022/06/25 13:17:58;;;;;;;3.38;0.80;;;29.30;56.10;;;;;;5006988;28;20049;-74